Terminal Aerodrome Forecast
Issued by NWS Grand Forks, ND

Home | Current Version | Previous Version | Graphics & Text | Print | Product List | Glossary On
Versions: 1 2 3 4 5 6 7 8 9 10 11 12
000
FTUS43 KFGF 161134
TAFFAR
TAF
KFAR 161134Z 1612/1712 18007KT P6SM SKC
     FM170000 27004KT 5SM BR SKC
     FM171000 23004KT P6SM SCT120=

USA.gov is the U.S. government's official web portal to all federal, state and local government web resources and services.